sensor_id;sensor_type;location;lat;lon;timestamp;temperature;humidity
580;DHT22;276;48.392;9.950;2023-12-04T00:01:12;0.70;98.80
580;DHT22;276;48.392;9.950;2023-12-04T00:03:40;0.70;98.80
580;DHT22;276;48.392;9.950;2023-12-04T00:06:06;0.70;99.00
580;DHT22;276;48.392;9.950;2023-12-04T00:08:32;0.80;99.40
580;DHT22;276;48.392;9.950;2023-12-04T00:10:58;0.80;99.30
580;DHT22;276;48.392;9.950;2023-12-04T00:13:24;0.80;99.30
580;DHT22;276;48.392;9.950;2023-12-04T00:15:51;0.80;99.20
580;DHT22;276;48.392;9.950;2023-12-04T00:18:19;0.80;99.20
580;DHT22;276;48.392;9.950;2023-12-04T00:20:45;0.80;99.30
580;DHT22;276;48.392;9.950;2023-12-04T00:23:10;0.80;99.40
580;DHT22;276;48.392;9.950;2023-12-04T00:25:38;0.80;99.30
580;DHT22;276;48.392;9.950;2023-12-04T00:28:04;0.80;99.10
580;DHT22;276;48.392;9.950;2023-12-04T00:30:32;0.70;98.80
580;DHT22;276;48.392;9.950;2023-12-04T00:32:57;0.60;98.70
580;DHT22;276;48.392;9.950;2023-12-04T00:35:23;0.60;98.80
580;DHT22;276;48.392;9.950;2023-12-04T00:37:49;0.50;98.80
580;DHT22;276;48.392;9.950;2023-12-04T00:40:14;0.40;98.60
580;DHT22;276;48.392;9.950;2023-12-04T00:42:40;0.40;98.70
580;DHT22;276;48.392;9.950;2023-12-04T00:45:06;0.30;98.90
580;DHT22;276;48.392;9.950;2023-12-04T00:47:34;0.30;99.20
580;DHT22;276;48.392;9.950;2023-12-04T00:50:05;0.30;99.10
580;DHT22;276;48.392;9.950;2023-12-04T00:52:30;0.30;99.10
580;DHT22;276;48.392;9.950;2023-12-04T00:54:56;0.30;99.10
580;DHT22;276;48.392;9.950;2023-12-04T00:57:21;0.20;99.00
580;DHT22;276;48.392;9.950;2023-12-04T00:59:48;0.20;99.20
580;DHT22;276;48.392;9.950;2023-12-04T01:02:15;0.20;99.30
580;DHT22;276;48.392;9.950;2023-12-04T01:04:43;0.30;99.30
580;DHT22;276;48.392;9.950;2023-12-04T01:07:09;0.20;99.40
580;DHT22;276;48.392;9.950;2023-12-04T01:09:37;0.20;99.00
580;DHT22;276;48.392;9.950;2023-12-04T01:12:03;0.20;98.90
580;DHT22;276;48.392;9.950;2023-12-04T01:14:32;0.20;99.00
580;DHT22;276;48.392;9.950;2023-12-04T01:16:58;0.20;99.00
580;DHT22;276;48.392;9.950;2023-12-04T01:19:24;0.10;98.90
580;DHT22;276;48.392;9.950;2023-12-04T01:21:51;0.10;98.80
580;DHT22;276;48.392;9.950;2023-12-04T01:24:18;0.10;98.80
580;DHT22;276;48.392;9.950;2023-12-04T01:26:43;0.10;98.70
580;DHT22;276;48.392;9.950;2023-12-04T01:29:09;0.10;98.70
580;DHT22;276;48.392;9.950;2023-12-04T01:31:35;0.00;98.50
580;DHT22;276;48.392;9.950;2023-12-04T01:34:00;0.00;98.50
580;DHT22;276;48.392;9.950;2023-12-04T01:36:26;0.00;98.60
580;DHT22;276;48.392;9.950;2023-12-04T01:38:54;0.00;98.70
580;DHT22;276;48.392;9.950;2023-12-04T01:41:22;0.00;98.70
580;DHT22;276;48.392;9.950;2023-12-04T01:43:50;0.00;98.60
580;DHT22;276;48.392;9.950;2023-12-04T01:46:17;0.00;98.70
580;DHT22;276;48.392;9.950;2023-12-04T01:48:45;0.00;98.70
580;DHT22;276;48.392;9.950;2023-12-04T01:51:12;0.00;98.70
580;DHT22;276;48.392;9.950;2023-12-04T01:53:41;0.00;98.70
580;DHT22;276;48.392;9.950;2023-12-04T01:56:07;0.00;98.60
580;DHT22;276;48.392;9.950;2023-12-04T01:58:33;0.10;98.70
580;DHT22;276;48.392;9.950;2023-12-04T02:00:59;0.10;98.40
580;DHT22;276;48.392;9.950;2023-12-04T02:03:25;0.20;98.50
580;DHT22;276;48.392;9.950;2023-12-04T02:05:51;0.20;98.40
580;DHT22;276;48.392;9.950;2023-12-04T02:08:18;0.20;98.40
580;DHT22;276;48.392;9.950;2023-12-04T02:10:46;0.20;98.50
580;DHT22;276;48.392;9.950;2023-12-04T02:13:12;0.20;98.10
580;DHT22;276;48.392;9.950;2023-12-04T02:15:43;0.20;97.80
580;DHT22;276;48.392;9.950;2023-12-04T02:18:11;0.20;97.50
580;DHT22;276;48.392;9.950;2023-12-04T02:20:39;0.10;97.50
580;DHT22;276;48.392;9.950;2023-12-04T02:23:05;0.10;97.60
580;DHT22;276;48.392;9.950;2023-12-04T02:25:35;0.00;97.50
580;DHT22;276;48.392;9.950;2023-12-04T02:28:04;0.00;97.50
580;DHT22;276;48.392;9.950;2023-12-04T02:30:34;0.00;97.30
580;DHT22;276;48.392;9.950;2023-12-04T02:33:04;-0.10;97.10
580;DHT22;276;48.392;9.950;2023-12-04T02:35:33;-0.20;97.30
580;DHT22;276;48.392;9.950;2023-12-04T02:38:00;-0.20;97.50
580;DHT22;276;48.392;9.950;2023-12-04T02:40:27;-0.20;97.70
580;DHT22;276;48.392;9.950;2023-12-04T02:42:53;-0.10;97.90
580;DHT22;276;48.392;9.950;2023-12-04T02:45:18;-0.10;97.90
580;DHT22;276;48.392;9.950;2023-12-04T02:47:46;0.00;98.00
580;DHT22;276;48.392;9.950;2023-12-04T02:50:12;0.00;97.70
580;DHT22;276;48.392;9.950;2023-12-04T02:52:37;0.00;97.50
580;DHT22;276;48.392;9.950;2023-12-04T02:55:12;0.00;97.30
580;DHT22;276;48.392;9.950;2023-12-04T02:57:37;0.00;97.30
580;DHT22;276;48.392;9.950;2023-12-04T03:00:03;-0.10;96.80
580;DHT22;276;48.392;9.950;2023-12-04T03:02:34;-0.10;96.90
580;DHT22;276;48.392;9.950;2023-12-04T03:04:59;-0.10;97.00
580;DHT22;276;48.392;9.950;2023-12-04T03:07:25;-0.10;97.00
580;DHT22;276;48.392;9.950;2023-12-04T03:09:51;-0.10;96.90
580;DHT22;276;48.392;9.950;2023-12-04T03:12:19;-0.10;97.00
580;DHT22;276;48.392;9.950;2023-12-04T03:14:45;-0.10;96.90
580;DHT22;276;48.392;9.950;2023-12-04T03:17:11;-0.10;96.80
580;DHT22;276;48.392;9.950;2023-12-04T03:19:41;-0.10;96.70
580;DHT22;276;48.392;9.950;2023-12-04T03:22:07;-0.20;96.70
580;DHT22;276;48.392;9.950;2023-12-04T03:24:35;-0.20;96.80
580;DHT22;276;48.392;9.950;2023-12-04T03:27:00;-0.20;96.90
580;DHT22;276;48.392;9.950;2023-12-04T03:29:26;-0.10;97.00
580;DHT22;276;48.392;9.950;2023-12-04T03:31:54;-0.10;97.00
580;DHT22;276;48.392;9.950;2023-12-04T03:34:19;-0.10;96.90
580;DHT22;276;48.392;9.950;2023-12-04T03:36:45;-0.10;96.60
580;DHT22;276;48.392;9.950;2023-12-04T03:39:11;-0.20;96.30
580;DHT22;276;48.392;9.950;2023-12-04T03:41:38;-0.20;96.30
580;DHT22;276;48.392;9.950;2023-12-04T03:44:04;-0.20;96.30
580;DHT22;276;48.392;9.950;2023-12-04T03:46:30;-0.20;96.40
580;DHT22;276;48.392;9.950;2023-12-04T03:48:55;-0.30;96.30
580;DHT22;276;48.392;9.950;2023-12-04T03:51:23;-0.30;96.30
580;DHT22;276;48.392;9.950;2023-12-04T03:53:49;-0.30;96.50
580;DHT22;276;48.392;9.950;2023-12-04T03:56:14;-0.30;96.40
580;DHT22;276;48.392;9.950;2023-12-04T03:58:42;-0.30;96.60
580;DHT22;276;48.392;9.950;2023-12-04T04:01:08;-0.30;96.50
580;DHT22;276;48.392;9.950;2023-12-04T04:03:36;-0.30;96.60
580;DHT22;276;48.392;9.950;2023-12-04T04:06:04;-0.30;96.50
580;DHT22;276;48.392;9.950;2023-12-04T04:08:30;-0.20;96.10
580;DHT22;276;48.392;9.950;2023-12-04T04:11:00;-0.30;95.90
580;DHT22;276;48.392;9.950;2023-12-04T04:13:28;-0.40;96.00
580;DHT22;276;48.392;9.950;2023-12-04T04:15:53;-0.40;96.20
580;DHT22;276;48.392;9.950;2023-12-04T04:18:19;-0.40;96.20
580;DHT22;276;48.392;9.950;2023-12-04T04:20:47;-0.40;96.50
580;DHT22;276;48.392;9.950;2023-12-04T04:23:15;-0.40;96.20
580;DHT22;276;48.392;9.950;2023-12-04T04:25:41;-0.30;96.20
580;DHT22;276;48.392;9.950;2023-12-04T04:28:08;-0.30;96.20
580;DHT22;276;48.392;9.950;2023-12-04T04:30:34;-0.40;96.00
580;DHT22;276;48.392;9.950;2023-12-04T04:32:59;-0.30;96.00
580;DHT22;276;48.392;9.950;2023-12-04T04:35:25;-0.40;95.90
580;DHT22;276;48.392;9.950;2023-12-04T04:37:53;-0.40;95.90
580;DHT22;276;48.392;9.950;2023-12-04T04:40:19;-0.40;95.70
580;DHT22;276;48.392;9.950;2023-12-04T04:42:44;-0.30;95.60
580;DHT22;276;48.392;9.950;2023-12-04T04:45:10;-0.40;95.50
580;DHT22;276;48.392;9.950;2023-12-04T04:47:40;-0.40;95.60
580;DHT22;276;48.392;9.950;2023-12-04T04:50:11;-0.40;95.70
580;DHT22;276;48.392;9.950;2023-12-04T04:52:41;-0.40;95.80
580;DHT22;276;48.392;9.950;2023-12-04T04:55:07;-0.40;96.10
580;DHT22;276;48.392;9.950;2023-12-04T04:57:32;-0.40;95.70
580;DHT22;276;48.392;9.950;2023-12-04T05:00:00;-0.40;95.50
580;DHT22;276;48.392;9.950;2023-12-04T05:02:26;-0.40;95.60
580;DHT22;276;48.392;9.950;2023-12-04T05:04:51;-0.50;95.60
580;DHT22;276;48.392;9.950;2023-12-04T05:07:17;-0.50;95.70
580;DHT22;276;48.392;9.950;2023-12-04T05:09:43;-0.60;95.60
580;DHT22;276;48.392;9.950;2023-12-04T05:12:10;-0.60;95.50
580;DHT22;276;48.392;9.950;2023-12-04T05:14:36;-0.60;95.40
580;DHT22;276;48.392;9.950;2023-12-04T05:17:04;-0.70;95.40
580;DHT22;276;48.392;9.950;2023-12-04T05:19:29;-0.70;95.50
580;DHT22;276;48.392;9.950;2023-12-04T05:22:00;-0.70;95.50
580;DHT22;276;48.392;9.950;2023-12-04T05:24:25;-0.70;95.50
580;DHT22;276;48.392;9.950;2023-12-04T05:26:53;-0.70;95.50
580;DHT22;276;48.392;9.950;2023-12-04T05:29:19;-0.70;95.50
580;DHT22;276;48.392;9.950;2023-12-04T05:31:44;-0.80;95.60
580;DHT22;276;48.392;9.950;2023-12-04T05:34:10;-0.70;95.70
580;DHT22;276;48.392;9.950;2023-12-04T05:36:36;-0.70;95.80
580;DHT22;276;48.392;9.950;2023-12-04T05:39:03;-0.70;95.60
580;DHT22;276;48.392;9.950;2023-12-04T05:41:30;-0.70;95.40
580;DHT22;276;48.392;9.950;2023-12-04T05:43:55;-0.70;95.60
580;DHT22;276;48.392;9.950;2023-12-04T05:46:21;-0.70;95.70
580;DHT22;276;48.392;9.950;2023-12-04T05:48:49;-0.80;95.50
580;DHT22;276;48.392;9.950;2023-12-04T05:51:15;-0.80;95.40
580;DHT22;276;48.392;9.950;2023-12-04T05:53:41;-0.90;95.40
580;DHT22;276;48.392;9.950;2023-12-04T05:56:09;-0.90;95.50
580;DHT22;276;48.392;9.950;2023-12-04T05:58:37;-0.90;95.60
580;DHT22;276;48.392;9.950;2023-12-04T06:01:03;-0.90;95.70
580;DHT22;276;48.392;9.950;2023-12-04T06:03:29;-0.90;95.60
580;DHT22;276;48.392;9.950;2023-12-04T06:06:00;-0.90;95.30
580;DHT22;276;48.392;9.950;2023-12-04T06:08:28;-0.90;95.30
580;DHT22;276;48.392;9.950;2023-12-04T06:10:53;-0.90;95.40
580;DHT22;276;48.392;9.950;2023-12-04T06:13:19;-0.80;95.50
580;DHT22;276;48.392;9.950;2023-12-04T06:15:45;-0.80;95.40
580;DHT22;276;48.392;9.950;2023-12-04T06:18:10;-0.80;95.30
580;DHT22;276;48.392;9.950;2023-12-04T06:20:36;-0.80;95.20
580;DHT22;276;48.392;9.950;2023-12-04T06:23:06;-0.80;95.00
580;DHT22;276;48.392;9.950;2023-12-04T06:25:32;-0.80;94.80
580;DHT22;276;48.392;9.950;2023-12-04T06:27:58;-0.80;94.60
580;DHT22;276;48.392;9.950;2023-12-04T06:30:26;-0.80;94.60
580;DHT22;276;48.392;9.950;2023-12-04T06:32:52;-0.80;94.70
580;DHT22;276;48.392;9.950;2023-12-04T06:35:21;-0.80;94.70
580;DHT22;276;48.392;9.950;2023-12-04T06:37:48;-0.80;94.90
580;DHT22;276;48.392;9.950;2023-12-04T06:40:17;-0.80;94.80
580;DHT22;276;48.392;9.950;2023-12-04T06:42:47;-0.80;94.80
580;DHT22;276;48.392;9.950;2023-12-04T06:45:13;-0.80;94.70
580;DHT22;276;48.392;9.950;2023-12-04T06:47:43;-0.70;94.70
580;DHT22;276;48.392;9.950;2023-12-04T06:50:11;-0.70;94.60
580;DHT22;276;48.392;9.950;2023-12-04T06:52:38;-0.70;94.90
580;DHT22;276;48.392;9.950;2023-12-04T06:55:04;-0.80;94.70
580;DHT22;276;48.392;9.950;2023-12-04T06:57:30;-0.90;94.80
580;DHT22;276;48.392;9.950;2023-12-04T06:59:56;-0.90;95.00
580;DHT22;276;48.392;9.950;2023-12-04T07:02:21;-0.90;95.20
580;DHT22;276;48.392;9.950;2023-12-04T07:04:49;-0.90;95.30
580;DHT22;276;48.392;9.950;2023-12-04T07:07:15;-0.90;95.30
580;DHT22;276;48.392;9.950;2023-12-04T07:09:43;-0.90;95.20
580;DHT22;276;48.392;9.950;2023-12-04T07:12:08;-0.90;95.20
580;DHT22;276;48.392;9.950;2023-12-04T07:14:39;-0.80;95.40
580;DHT22;276;48.392;9.950;2023-12-04T07:17:04;-0.80;95.40
580;DHT22;276;48.392;9.950;2023-12-04T07:19:30;-0.70;95.40
580;DHT22;276;48.392;9.950;2023-12-04T07:21:56;-0.70;95.20
580;DHT22;276;48.392;9.950;2023-12-04T07:24:21;-0.70;95.30
580;DHT22;276;48.392;9.950;2023-12-04T07:26:50;-0.80;95.50
580;DHT22;276;48.392;9.950;2023-12-04T07:29:15;-0.80;95.50
580;DHT22;276;48.392;9.950;2023-12-04T07:31:41;-0.70;95.50
580;DHT22;276;48.392;9.950;2023-12-04T07:34:09;-0.70;95.40
580;DHT22;276;48.392;9.950;2023-12-04T07:36:35;-0.70;95.20
580;DHT22;276;48.392;9.950;2023-12-04T07:39:03;-0.70;95.10
580;DHT22;276;48.392;9.950;2023-12-04T07:41:33;-0.70;95.20
580;DHT22;276;48.392;9.950;2023-12-04T07:44:02;-0.70;95.30
580;DHT22;276;48.392;9.950;2023-12-04T07:46:29;-0.60;95.10
580;DHT22;276;48.392;9.950;2023-12-04T07:48:54;-0.60;95.20
580;DHT22;276;48.392;9.950;2023-12-04T07:51:20;-0.60;95.20
580;DHT22;276;48.392;9.950;2023-12-04T07:53:46;-0.60;95.10
580;DHT22;276;48.392;9.950;2023-12-04T07:56:13;-0.50;95.40
580;DHT22;276;48.392;9.950;2023-12-04T07:58:41;-0.50;95.30
580;DHT22;276;48.392;9.950;2023-12-04T08:01:07;-0.50;95.10
580;DHT22;276;48.392;9.950;2023-12-04T08:03:33;-0.40;95.20
580;DHT22;276;48.392;9.950;2023-12-04T08:05:58;-0.40;95.30
580;DHT22;276;48.392;9.950;2023-12-04T08:08:27;-0.30;95.30
580;DHT22;276;48.392;9.950;2023-12-04T08:10:52;-0.30;95.00
580;DHT22;276;48.392;9.950;2023-12-04T08:13:20;-0.30;94.70
580;DHT22;276;48.392;9.950;2023-12-04T08:15:46;-0.40;94.60
580;DHT22;276;48.392;9.950;2023-12-04T08:18:16;-0.40;94.80
580;DHT22;276;48.392;9.950;2023-12-04T08:20:42;-0.30;94.90
580;DHT22;276;48.392;9.950;2023-12-04T08:23:10;-0.30;94.80
580;DHT22;276;48.392;9.950;2023-12-04T08:25:36;-0.30;94.80
580;DHT22;276;48.392;9.950;2023-12-04T08:28:04;-0.30;94.80
580;DHT22;276;48.392;9.950;2023-12-04T08:30:29;-0.30;95.40
580;DHT22;276;48.392;9.950;2023-12-04T08:32:55;-0.30;95.30
580;DHT22;276;48.392;9.950;2023-12-04T08:35:20;-0.30;95.40
580;DHT22;276;48.392;9.950;2023-12-04T08:37:49;-0.30;95.20
580;DHT22;276;48.392;9.950;2023-12-04T08:40:15;-0.30;95.10
580;DHT22;276;48.392;9.950;2023-12-04T08:42:40;-0.20;95.10
580;DHT22;276;48.392;9.950;2023-12-04T08:45:06;-0.30;95.00
580;DHT22;276;48.392;9.950;2023-12-04T08:47:34;-0.30;94.80
580;DHT22;276;48.392;9.950;2023-12-04T08:50:00;-0.30;95.00
580;DHT22;276;48.392;9.950;2023-12-04T08:52:26;-0.30;94.90
580;DHT22;276;48.392;9.950;2023-12-04T08:54:51;-0.30;95.20
580;DHT22;276;48.392;9.950;2023-12-04T08:57:23;-0.30;95.10
580;DHT22;276;48.392;9.950;2023-12-04T08:59:51;-0.20;95.20
580;DHT22;276;48.392;9.950;2023-12-04T09:02:16;-0.20;95.20
580;DHT22;276;48.392;9.950;2023-12-04T09:04:44;-0.20;95.20
580;DHT22;276;48.392;9.950;2023-12-04T09:07:12;-0.20;95.00
580;DHT22;276;48.392;9.950;2023-12-04T09:09:41;-0.20;95.00
580;DHT22;276;48.392;9.950;2023-12-04T09:12:09;-0.20;95.10
580;DHT22;276;48.392;9.950;2023-12-04T09:14:35;-0.10;95.00
580;DHT22;276;48.392;9.950;2023-12-04T09:17:02;-0.20;94.90
580;DHT22;276;48.392;9.950;2023-12-04T09:19:29;-0.20;95.00
580;DHT22;276;48.392;9.950;2023-12-04T09:21:56;-0.20;95.20
580;DHT22;276;48.392;9.950;2023-12-04T09:24:23;-0.20;95.50
580;DHT22;276;48.392;9.950;2023-12-04T09:26:51;-0.20;95.60
580;DHT22;276;48.392;9.950;2023-12-04T09:29:17;-0.20;95.60
580;DHT22;276;48.392;9.950;2023-12-04T09:31:45;-0.20;95.50
580;DHT22;276;48.392;9.950;2023-12-04T09:34:13;-0.10;95.60
580;DHT22;276;48.392;9.950;2023-12-04T09:36:41;-0.10;95.50
580;DHT22;276;48.392;9.950;2023-12-04T09:39:07;-0.10;95.40
580;DHT22;276;48.392;9.950;2023-12-04T09:41:33;-0.10;95.50
580;DHT22;276;48.392;9.950;2023-12-04T09:44:02;-0.10;95.20
580;DHT22;276;48.392;9.950;2023-12-04T09:46:28;-0.10;95.10
580;DHT22;276;48.392;9.950;2023-12-04T09:48:54;-0.10;95.00
580;DHT22;276;48.392;9.950;2023-12-04T09:51:22;0.00;94.90
580;DHT22;276;48.392;9.950;2023-12-04T09:53:49;0.00;94.80
580;DHT22;276;48.392;9.950;2023-12-04T09:56:16;0.00;95.00
580;DHT22;276;48.392;9.950;2023-12-04T09:58:42;0.20;95.40
580;DHT22;276;48.392;9.950;2023-12-04T10:01:11;0.30;95.30
580;DHT22;276;48.392;9.950;2023-12-04T10:03:40;0.50;95.00
580;DHT22;276;48.392;9.950;2023-12-04T10:06:08;0.70;95.10
580;DHT22;276;48.392;9.950;2023-12-04T10:08:33;0.80;94.50
580;DHT22;276;48.392;9.950;2023-12-04T10:10:59;0.80;94.30
580;DHT22;276;48.392;9.950;2023-12-04T10:13:27;0.80;94.00
580;DHT22;276;48.392;9.950;2023-12-04T10:15:52;0.80;93.60
580;DHT22;276;48.392;9.950;2023-12-04T10:18:28;0.60;93.60
580;DHT22;276;48.392;9.950;2023-12-04T10:20:59;0.60;94.10
580;DHT22;276;48.392;9.950;2023-12-04T10:26:04;0.50;94.00
580;DHT22;276;48.392;9.950;2023-12-04T10:28:30;0.40;94.30
580;DHT22;276;48.392;9.950;2023-12-04T10:30:58;0.50;94.50
580;DHT22;276;48.392;9.950;2023-12-04T10:33:29;0.60;94.90
580;DHT22;276;48.392;9.950;2023-12-04T10:35:54;0.70;94.90
580;DHT22;276;48.392;9.950;2023-12-04T10:38:25;0.70;94.80
580;DHT22;276;48.392;9.950;2023-12-04T10:40:53;0.70;95.10
580;DHT22;276;48.392;9.950;2023-12-04T10:43:22;0.80;95.30
580;DHT22;276;48.392;9.950;2023-12-04T10:45:50;0.80;95.10
580;DHT22;276;48.392;9.950;2023-12-04T10:48:20;0.80;94.90
580;DHT22;276;48.392;9.950;2023-12-04T10:50:47;0.80;94.80
580;DHT22;276;48.392;9.950;2023-12-04T10:53:15;0.80;94.90
580;DHT22;276;48.392;9.950;2023-12-04T10:55:46;0.90;94.90
580;DHT22;276;48.392;9.950;2023-12-04T10:58:17;0.90;94.90
580;DHT22;276;48.392;9.950;2023-12-04T11:00:48;0.90;95.20
580;DHT22;276;48.392;9.950;2023-12-04T11:03:35;0.90;95.00
580;DHT22;276;48.392;9.950;2023-12-04T11:06:02;1.00;95.00
580;DHT22;276;48.392;9.950;2023-12-04T11:08:36;1.10;95.30
580;DHT22;276;48.392;9.950;2023-12-04T11:11:03;1.20;95.40
580;DHT22;276;48.392;9.950;2023-12-04T11:13:35;1.30;95.40
580;DHT22;276;48.392;9.950;2023-12-04T11:16:22;1.40;95.50
580;DHT22;276;48.392;9.950;2023-12-04T11:19:01;1.50;95.50
580;DHT22;276;48.392;9.950;2023-12-04T11:21:31;1.60;95.40
580;DHT22;276;48.392;9.950;2023-12-04T11:23:57;1.70;95.20
580;DHT22;276;48.392;9.950;2023-12-04T11:26:25;1.70;95.10
580;DHT22;276;48.392;9.950;2023-12-04T11:28:52;1.80;95.20
580;DHT22;276;48.392;9.950;2023-12-04T11:31:18;1.90;95.10
580;DHT22;276;48.392;9.950;2023-12-04T11:33:47;2.10;95.00
580;DHT22;276;48.392;9.950;2023-12-04T11:36:15;2.20;94.90
580;DHT22;276;48.392;9.950;2023-12-04T11:38:45;2.50;94.90
580;DHT22;276;48.392;9.950;2023-12-04T11:41:18;2.80;94.50
580;DHT22;276;48.392;9.950;2023-12-04T11:43:46;3.70;94.80
580;DHT22;276;48.392;9.950;2023-12-04T11:46:15;4.80;93.20
580;DHT22;276;48.392;9.950;2023-12-04T11:48:47;5.30;91.10
580;DHT22;276;48.392;9.950;2023-12-04T11:51:16;5.20;90.20
580;DHT22;276;48.392;9.950;2023-12-04T11:54:00;4.90;89.00
580;DHT22;276;48.392;9.950;2023-12-04T11:56:30;4.50;88.40
580;DHT22;276;48.392;9.950;2023-12-04T11:59:03;4.10;89.50
580;DHT22;276;48.392;9.950;2023-12-04T12:01:33;3.80;89.90
580;DHT22;276;48.392;9.950;2023-12-04T12:03:59;3.30;89.40
580;DHT22;276;48.392;9.950;2023-12-04T12:06:28;2.90;90.10
580;DHT22;276;48.392;9.950;2023-12-04T12:08:56;2.60;90.60
580;DHT22;276;48.392;9.950;2023-12-04T12:11:24;2.50;91.30
580;DHT22;276;48.392;9.950;2023-12-04T12:13:53;2.30;91.70
580;DHT22;276;48.392;9.950;2023-12-04T12:16:18;2.20;91.80
580;DHT22;276;48.392;9.950;2023-12-04T12:18:44;2.10;92.10
580;DHT22;276;48.392;9.950;2023-12-04T12:21:12;2.00;92.30
580;DHT22;276;48.392;9.950;2023-12-04T12:23:38;1.80;92.30
580;DHT22;276;48.392;9.950;2023-12-04T12:26:06;1.60;92.40
580;DHT22;276;48.392;9.950;2023-12-04T12:28:35;1.50;92.80
580;DHT22;276;48.392;9.950;2023-12-04T12:31:04;1.40;93.00
580;DHT22;276;48.392;9.950;2023-12-04T12:33:34;1.40;93.50
580;DHT22;276;48.392;9.950;2023-12-04T12:36:02;1.50;93.70
580;DHT22;276;48.392;9.950;2023-12-04T12:38:30;1.50;93.80
580;DHT22;276;48.392;9.950;2023-12-04T12:41:00;1.50;93.80
580;DHT22;276;48.392;9.950;2023-12-04T12:43:27;1.60;93.60
580;DHT22;276;48.392;9.950;2023-12-04T12:45:53;1.60;93.80
580;DHT22;276;48.392;9.950;2023-12-04T12:48:19;1.70;93.90
580;DHT22;276;48.392;9.950;2023-12-04T12:50:46;1.80;94.10
580;DHT22;276;48.392;9.950;2023-12-04T12:53:15;2.00;94.00
580;DHT22;276;48.392;9.950;2023-12-04T12:55:43;2.00;93.50
580;DHT22;276;48.392;9.950;2023-12-04T12:58:11;2.10;93.50
580;DHT22;276;48.392;9.950;2023-12-04T13:00:39;2.10;93.70
580;DHT22;276;48.392;9.950;2023-12-04T13:03:14;2.10;93.40
580;DHT22;276;48.392;9.950;2023-12-04T13:05:42;2.20;93.50
580;DHT22;276;48.392;9.950;2023-12-04T13:08:09;2.20;93.50
580;DHT22;276;48.392;9.950;2023-12-04T13:10:37;2.20;93.60
580;DHT22;276;48.392;9.950;2023-12-04T13:13:15;2.10;93.50
580;DHT22;276;48.392;9.950;2023-12-04T13:15:46;2.00;93.90
580;DHT22;276;48.392;9.950;2023-12-04T13:18:13;2.00;93.90
580;DHT22;276;48.392;9.950;2023-12-04T13:20:39;1.90;93.90
580;DHT22;276;48.392;9.950;2023-12-04T13:23:05;1.80;93.80
580;DHT22;276;48.392;9.950;2023-12-04T13:25:32;1.80;93.90
580;DHT22;276;48.392;9.950;2023-12-04T13:27:59;1.80;94.10
580;DHT22;276;48.392;9.950;2023-12-04T13:30:24;1.80;94.10
580;DHT22;276;48.392;9.950;2023-12-04T13:32:52;1.80;94.30
580;DHT22;276;48.392;9.950;2023-12-04T13:35:18;1.70;94.10
580;DHT22;276;48.392;9.950;2023-12-04T13:37:46;1.70;94.20
580;DHT22;276;48.392;9.950;2023-12-04T13:40:22;1.60;94.30
580;DHT22;276;48.392;9.950;2023-12-04T13:42:54;1.50;94.10
580;DHT22;276;48.392;9.950;2023-12-04T13:45:38;1.50;94.30
580;DHT22;276;48.392;9.950;2023-12-04T13:48:06;1.50;94.60
580;DHT22;276;48.392;9.950;2023-12-04T13:50:32;1.50;95.10
580;DHT22;276;48.392;9.950;2023-12-04T13:52:57;1.50;95.10
580;DHT22;276;48.392;9.950;2023-12-04T13:55:29;1.50;95.30
580;DHT22;276;48.392;9.950;2023-12-04T13:58:34;1.50;95.40
580;DHT22;276;48.392;9.950;2023-12-04T14:01:08;1.40;95.70
580;DHT22;276;48.392;9.950;2023-12-04T14:03:43;1.40;95.30
580;DHT22;276;48.392;9.950;2023-12-04T14:06:09;1.30;95.60
580;DHT22;276;48.392;9.950;2023-12-04T14:08:35;1.40;95.80
580;DHT22;276;48.392;9.950;2023-12-04T14:11:04;1.40;95.80
580;DHT22;276;48.392;9.950;2023-12-04T14:13:32;1.40;95.60
580;DHT22;276;48.392;9.950;2023-12-04T14:16:03;1.40;95.60
580;DHT22;276;48.392;9.950;2023-12-04T14:18:34;1.40;95.50
580;DHT22;276;48.392;9.950;2023-12-04T14:20:59;1.30;95.50
580;DHT22;276;48.392;9.950;2023-12-04T14:23:25;1.40;95.60
580;DHT22;276;48.392;9.950;2023-12-04T14:25:50;1.40;95.60
580;DHT22;276;48.392;9.950;2023-12-04T14:28:16;1.40;95.60
580;DHT22;276;48.392;9.950;2023-12-04T14:30:42;1.50;95.70
580;DHT22;276;48.392;9.950;2023-12-04T14:33:08;1.50;95.90
580;DHT22;276;48.392;9.950;2023-12-04T14:35:35;1.50;95.80
580;DHT22;276;48.392;9.950;2023-12-04T14:38:05;1.50;96.00
580;DHT22;276;48.392;9.950;2023-12-04T14:40:31;1.40;96.00
580;DHT22;276;48.392;9.950;2023-12-04T14:42:59;1.40;96.00
580;DHT22;276;48.392;9.950;2023-12-04T14:45:27;1.40;96.10
580;DHT22;276;48.392;9.950;2023-12-04T14:47:53;1.40;96.20
580;DHT22;276;48.392;9.950;2023-12-04T14:50:22;1.40;96.30
580;DHT22;276;48.392;9.950;2023-12-04T14:52:50;1.40;96.50
580;DHT22;276;48.392;9.950;2023-12-04T14:55:17;1.50;96.90
580;DHT22;276;48.392;9.950;2023-12-04T14:57:50;1.50;96.80
580;DHT22;276;48.392;9.950;2023-12-04T15:00:41;1.50;96.80
580;DHT22;276;48.392;9.950;2023-12-04T15:03:15;1.50;96.70
580;DHT22;276;48.392;9.950;2023-12-04T15:05:59;1.50;96.80
580;DHT22;276;48.392;9.950;2023-12-04T15:08:45;1.40;96.60
580;DHT22;276;48.392;9.950;2023-12-04T15:11:29;1.50;97.00
580;DHT22;276;48.392;9.950;2023-12-04T15:14:26;1.50;97.10
580;DHT22;276;48.392;9.950;2023-12-04T15:17:10;1.50;97.10
580;DHT22;276;48.392;9.950;2023-12-04T15:19:44;1.50;97.20
580;DHT22;276;48.392;9.950;2023-12-04T15:22:42;1.50;97.20
580;DHT22;276;48.392;9.950;2023-12-04T15:25:08;1.50;97.30
580;DHT22;276;48.392;9.950;2023-12-04T15:27:39;1.50;97.30
580;DHT22;276;48.392;9.950;2023-12-04T15:30:07;1.50;97.40
580;DHT22;276;48.392;9.950;2023-12-04T15:32:34;1.50;97.40
580;DHT22;276;48.392;9.950;2023-12-04T15:35:01;1.60;97.40
580;DHT22;276;48.392;9.950;2023-12-04T15:37:28;1.60;97.30
580;DHT22;276;48.392;9.950;2023-12-04T15:39:54;1.60;97.30
580;DHT22;276;48.392;9.950;2023-12-04T15:42:20;1.50;97.20
580;DHT22;276;48.392;9.950;2023-12-04T15:44:45;1.50;97.30
580;DHT22;276;48.392;9.950;2023-12-04T15:47:11;1.60;97.50
580;DHT22;276;48.392;9.950;2023-12-04T15:49:36;1.60;97.50
580;DHT22;276;48.392;9.950;2023-12-04T15:52:02;1.50;97.60
580;DHT22;276;48.392;9.950;2023-12-04T15:54:29;1.50;97.60
580;DHT22;276;48.392;9.950;2023-12-04T15:56:59;1.50;97.70
580;DHT22;276;48.392;9.950;2023-12-04T15:59:30;1.60;97.70
580;DHT22;276;48.392;9.950;2023-12-04T16:01:55;1.50;97.80
580;DHT22;276;48.392;9.950;2023-12-04T16:04:21;1.50;98.10
580;DHT22;276;48.392;9.950;2023-12-04T16:06:51;1.50;98.20
580;DHT22;276;48.392;9.950;2023-12-04T16:09:20;1.60;98.30
580;DHT22;276;48.392;9.950;2023-12-04T16:11:45;1.60;98.30
580;DHT22;276;48.392;9.950;2023-12-04T16:14:12;1.60;98.50
580;DHT22;276;48.392;9.950;2023-12-04T16:16:40;1.70;98.40
580;DHT22;276;48.392;9.950;2023-12-04T16:19:05;1.70;98.30
580;DHT22;276;48.392;9.950;2023-12-04T16:21:33;1.70;98.30
580;DHT22;276;48.392;9.950;2023-12-04T16:24:00;1.70;98.20
580;DHT22;276;48.392;9.950;2023-12-04T16:26:28;1.70;98.10
580;DHT22;276;48.392;9.950;2023-12-04T16:28:57;1.70;98.10
580;DHT22;276;48.392;9.950;2023-12-04T16:31:25;1.70;98.40
580;DHT22;276;48.392;9.950;2023-12-04T16:33:50;1.70;98.50
580;DHT22;276;48.392;9.950;2023-12-04T16:36:16;1.70;98.40
580;DHT22;276;48.392;9.950;2023-12-04T16:38:45;1.70;98.30
580;DHT22;276;48.392;9.950;2023-12-04T16:41:13;1.70;98.40
580;DHT22;276;48.392;9.950;2023-12-04T16:43:42;1.70;98.40
580;DHT22;276;48.392;9.950;2023-12-04T16:46:09;1.70;98.50
580;DHT22;276;48.392;9.950;2023-12-04T16:48:37;1.70;98.50
580;DHT22;276;48.392;9.950;2023-12-04T16:51:07;1.70;98.60